createdAt,value
2023-03-10T00:01:28.647Z,19.34
2023-03-10T00:03:57.107Z,19.35
2023-03-10T00:06:26.737Z,19.34
2023-03-10T00:08:54.473Z,19.33
2023-03-10T00:11:21.824Z,19.32
2023-03-10T00:13:48.804Z,19.30
2023-03-10T00:16:20.342Z,19.28
2023-03-10T00:18:47.896Z,19.28
2023-03-10T00:21:20.969Z,19.27
2023-03-10T00:23:48.119Z,19.27
2023-03-10T00:26:16.805Z,19.27
2023-03-10T00:28:44.248Z,19.25
2023-03-10T00:31:14.566Z,19.25
2023-03-10T00:33:41.604Z,19.25
2023-03-10T00:36:08.824Z,19.25
2023-03-10T00:38:37.172Z,19.24
2023-03-10T00:41:10.773Z,19.24
2023-03-10T00:43:38.266Z,19.22
2023-03-10T00:46:06.607Z,19.22
2023-03-10T00:48:34.407Z,19.20
2023-03-10T00:51:02.626Z,19.19
2023-03-10T00:53:30.478Z,19.19
2023-03-10T00:55:59.677Z,19.19
2023-03-10T00:58:27.647Z,19.19
2023-03-10T01:00:55.388Z,19.20
2023-03-10T01:03:23.164Z,19.23
2023-03-10T01:05:52.262Z,19.25
2023-03-10T01:08:19.965Z,19.26
2023-03-10T01:10:48.595Z,19.28
2023-03-10T01:13:21.637Z,19.29
2023-03-10T01:15:51.210Z,19.30
2023-03-10T01:18:19.718Z,19.29
2023-03-10T01:20:47.980Z,19.28
2023-03-10T01:23:25.594Z,19.28
2023-03-10T01:25:53.215Z,19.28
2023-03-10T01:28:21.172Z,19.27
2023-03-10T01:30:49.094Z,19.27
2023-03-10T01:33:17.756Z,19.27
2023-03-10T01:35:45.461Z,19.27
2023-03-10T01:38:13.244Z,19.27
2023-03-10T01:40:40.657Z,19.27
2023-03-10T01:43:38.984Z,19.26
2023-03-10T01:46:23.911Z,19.24
2023-03-10T01:48:51.264Z,19.24
2023-03-10T01:51:19.222Z,19.23
2023-03-10T01:53:46.904Z,19.22
2023-03-10T01:56:14.781Z,19.19
2023-03-10T01:58:46.488Z,19.17
2023-03-10T02:01:16.179Z,19.15
2023-03-10T02:04:04.724Z,19.15
2023-03-10T02:06:32.986Z,19.14
2023-03-10T02:09:02.288Z,19.15
2023-03-10T02:11:29.908Z,19.19
2023-03-10T02:13:57.172Z,19.21
2023-03-10T02:16:24.388Z,19.21
2023-03-10T02:18:51.408Z,19.22
2023-03-10T02:21:40.859Z,19.24
2023-03-10T02:24:19.169Z,19.25
2023-03-10T02:26:56.014Z,19.25
2023-03-10T02:29:33.434Z,19.25
2023-03-10T02:32:02.795Z,19.26
2023-03-10T02:34:30.332Z,19.26
2023-03-10T02:36:58.105Z,19.27
2023-03-10T02:39:25.245Z,19.26
2023-03-10T02:41:53.131Z,19.26
2023-03-10T02:44:23.719Z,19.25
2023-03-10T02:46:51.375Z,19.26
2023-03-10T02:49:21.894Z,19.25
2023-03-10T02:51:48.992Z,19.24
2023-03-10T02:54:17.736Z,19.23
2023-03-10T02:56:45.716Z,19.22
2023-03-10T02:59:13.264Z,19.23
2023-03-10T03:01:44.215Z,19.22
2023-03-10T03:04:11.342Z,19.22
2023-03-10T03:06:40.205Z,19.21
2023-03-10T03:09:07.499Z,19.21
2023-03-10T03:11:35.206Z,19.20
2023-03-10T03:14:02.770Z,19.20
2023-03-10T03:16:30.116Z,19.24
2023-03-10T03:18:59.665Z,19.27
2023-03-10T03:21:27.966Z,19.27
2023-03-10T03:23:55.055Z,19.28
2023-03-10T03:26:27.493Z,19.29
2023-03-10T03:29:02.117Z,19.29
2023-03-10T03:31:31.661Z,19.31
2023-03-10T03:34:06.289Z,19.31
2023-03-10T03:36:33.629Z,19.31
2023-03-10T03:39:01.370Z,19.31
2023-03-10T03:41:30.549Z,19.30
2023-03-10T03:43:57.948Z,19.29
2023-03-10T03:46:25.538Z,19.29
2023-03-10T03:48:52.975Z,19.28
2023-03-10T03:51:20.035Z,19.26
2023-03-10T03:53:47.198Z,19.26
2023-03-10T03:56:14.494Z,19.26
2023-03-10T03:58:43.022Z,19.26
2023-03-10T04:01:10.686Z,19.24
2023-03-10T04:03:41.727Z,19.21
2023-03-10T04:06:10.081Z,19.19
2023-03-10T04:08:37.278Z,19.18
2023-03-10T04:11:04.696Z,19.18
2023-03-10T04:13:32.399Z,19.22
2023-03-10T04:16:00.182Z,19.23
2023-03-10T04:18:31.287Z,19.23
2023-03-10T04:20:58.783Z,19.25
2023-03-10T04:23:26.109Z,19.26
2023-03-10T04:25:53.972Z,19.27
2023-03-10T04:28:21.193Z,19.28
2023-03-10T04:30:49.143Z,19.28
2023-03-10T04:33:17.314Z,19.28
2023-03-10T04:35:51.433Z,19.28
2023-03-10T04:38:19.703Z,19.28
2023-03-10T04:40:53.882Z,19.27
2023-03-10T04:43:21.603Z,19.27
2023-03-10T04:45:49.832Z,19.26
2023-03-10T04:48:16.935Z,19.25
2023-03-10T04:50:45.128Z,19.25
2023-03-10T04:53:13.401Z,19.25
2023-03-10T04:55:40.483Z,19.24
2023-03-10T04:58:07.518Z,19.23
2023-03-10T05:00:34.861Z,19.22
2023-03-10T05:03:01.888Z,19.22
2023-03-10T05:05:29.084Z,19.21
2023-03-10T05:07:56.216Z,19.21
2023-03-10T05:10:23.127Z,19.25
2023-03-10T05:12:50.412Z,19.25
2023-03-10T05:15:18.278Z,19.26
2023-03-10T05:17:47.020Z,19.27
2023-03-10T05:20:15.443Z,19.28
2023-03-10T05:22:42.847Z,19.29
2023-03-10T05:25:12.380Z,19.30
2023-03-10T05:27:39.962Z,19.29
2023-03-10T05:30:08.253Z,19.29
2023-03-10T05:32:36.856Z,19.28
2023-03-10T05:35:04.647Z,19.28
2023-03-10T05:37:33.471Z,19.27
2023-03-10T05:40:00.433Z,19.27
2023-03-10T05:42:27.623Z,19.26
2023-03-10T05:44:54.722Z,19.26
2023-03-10T05:47:21.822Z,19.25
2023-03-10T05:49:48.812Z,19.25
2023-03-10T05:52:16.541Z,19.23
2023-03-10T05:54:43.862Z,19.23
2023-03-10T05:57:15.379Z,19.21
2023-03-10T05:59:42.439Z,19.21
2023-03-10T06:02:09.446Z,19.26
2023-03-10T06:04:36.382Z,19.26
2023-03-10T06:07:04.088Z,19.27
2023-03-10T06:09:32.922Z,19.27
2023-03-10T06:12:00.048Z,19.29
2023-03-10T06:14:26.979Z,19.30
2023-03-10T06:16:55.092Z,19.31
2023-03-10T06:19:22.697Z,19.31
2023-03-10T06:21:50.074Z,19.31
2023-03-10T06:24:17.113Z,19.30
2023-03-10T06:26:44.148Z,19.29
2023-03-10T06:29:11.405Z,19.29
2023-03-10T06:31:38.575Z,19.28
2023-03-10T06:34:05.548Z,19.27
2023-03-10T06:36:33.189Z,19.27
2023-03-10T06:39:00.168Z,19.27
2023-03-10T06:41:28.263Z,19.27
2023-03-10T06:43:55.360Z,19.25
2023-03-10T06:46:22.564Z,19.25
2023-03-10T06:48:50.060Z,19.28
2023-03-10T06:51:20.449Z,19.30
2023-03-10T06:53:47.842Z,19.29
2023-03-10T06:56:22.488Z,19.30
2023-03-10T06:58:49.558Z,19.31
2023-03-10T07:01:30.805Z,19.33
2023-03-10T07:03:59.175Z,19.33
2023-03-10T07:06:28.438Z,19.33
2023-03-10T07:08:55.723Z,19.33
2023-03-10T07:11:24.156Z,19.33
2023-03-10T07:13:51.277Z,19.32
2023-03-10T07:16:18.717Z,19.31
2023-03-10T07:18:45.913Z,19.29
2023-03-10T07:21:17.149Z,19.26
2023-03-10T07:23:44.947Z,19.23
2023-03-10T07:26:14.935Z,19.20
2023-03-10T07:28:42.287Z,19.17
2023-03-10T07:31:11.932Z,19.17
2023-03-10T07:33:39.166Z,19.20
2023-03-10T07:36:08.594Z,19.19
2023-03-10T07:38:35.842Z,19.19
2023-03-10T07:41:07.553Z,19.21
2023-03-10T07:43:34.506Z,19.22
2023-03-10T07:46:06.482Z,19.22
2023-03-10T07:48:34.109Z,19.23
2023-03-10T07:51:01.592Z,19.25
2023-03-10T07:53:28.870Z,19.25
2023-03-10T07:55:55.928Z,19.27
2023-03-10T07:58:23.182Z,19.29
2023-03-10T08:00:57.644Z,19.31
2023-03-10T08:03:27.112Z,19.33
2023-03-10T08:05:54.584Z,19.35
2023-03-10T08:08:23.284Z,19.34
2023-03-10T08:10:50.554Z,19.34
2023-03-10T08:13:17.641Z,19.34
2023-03-10T08:15:44.733Z,19.33
2023-03-10T08:18:12.051Z,19.34
2023-03-10T08:20:40.771Z,19.36
2023-03-10T08:23:07.818Z,19.36
2023-03-10T08:25:34.709Z,19.37
2023-03-10T08:28:01.912Z,19.38
2023-03-10T08:30:28.905Z,19.39
2023-03-10T08:32:55.885Z,19.40
2023-03-10T08:35:22.777Z,19.41
2023-03-10T08:37:55.153Z,19.40
2023-03-10T08:40:22.405Z,19.42
2023-03-10T08:42:49.343Z,19.42
2023-03-10T08:45:16.242Z,19.42
2023-03-10T08:47:43.136Z,19.43
2023-03-10T08:50:11.941Z,19.43
2023-03-10T08:52:39.616Z,19.44
2023-03-10T08:55:07.287Z,19.43
2023-03-10T08:57:34.479Z,19.44
2023-03-10T09:00:01.774Z,19.45
2023-03-10T09:02:29.693Z,19.45
2023-03-10T09:04:56.618Z,19.44
2023-03-10T09:07:23.748Z,19.44
2023-03-10T09:09:50.801Z,19.45
2023-03-10T09:12:17.651Z,19.45
2023-03-10T09:14:44.594Z,19.45
2023-03-10T09:17:12.114Z,19.45
2023-03-10T09:19:39.154Z,19.45
2023-03-10T09:22:06.113Z,19.44
2023-03-10T09:24:33.254Z,19.42
2023-03-10T09:27:00.500Z,19.40
2023-03-10T09:29:42.041Z,19.39
2023-03-10T09:32:09.953Z,19.37
2023-03-10T09:34:37.107Z,19.38
2023-03-10T09:37:06.879Z,19.38
2023-03-10T09:39:35.089Z,19.39
2023-03-10T09:42:18.913Z,19.40
2023-03-10T09:44:58.157Z,19.39
2023-03-10T09:48:04.991Z,19.39
2023-03-10T09:50:42.618Z,19.38
2023-03-10T09:53:49.436Z,19.39
2023-03-10T09:56:23.950Z,19.40
2023-03-10T09:58:59.967Z,19.41
2023-03-10T10:01:30.280Z,19.43
2023-03-10T10:04:04.990Z,19.45
2023-03-10T10:06:38.513Z,19.46
2023-03-10T10:09:17.738Z,19.46
2023-03-10T10:11:44.721Z,19.46
2023-03-10T10:14:27.763Z,19.48
2023-03-10T10:16:55.989Z,19.48
2023-03-10T10:19:25.100Z,19.49
2023-03-10T10:21:58.205Z,19.49
2023-03-10T10:24:25.457Z,19.50
2023-03-10T10:26:52.732Z,19.49
2023-03-10T10:29:23.288Z,19.49
2023-03-10T10:32:12.670Z,19.50
2023-03-10T10:34:45.191Z,19.50
2023-03-10T10:37:38.292Z,19.51
2023-03-10T10:40:26.655Z,19.52
2023-03-10T10:42:56.036Z,19.53
2023-03-10T10:45:40.431Z,19.54
2023-03-10T10:48:27.392Z,19.55
2023-03-10T10:50:54.947Z,19.56
2023-03-10T10:53:24.494Z,19.57
2023-03-10T10:56:06.562Z,19.57
2023-03-10T10:58:39.262Z,19.58
2023-03-10T11:01:08.994Z,19.58
2023-03-10T11:03:39.121Z,19.60
2023-03-10T11:06:18.348Z,19.60
2023-03-10T11:08:51.340Z,19.61
2023-03-10T11:11:36.082Z,19.61
2023-03-10T11:14:13.525Z,19.61
2023-03-10T11:16:47.224Z,19.62
2023-03-10T11:19:32.589Z,19.62
2023-03-10T11:22:07.771Z,19.62
2023-03-10T11:24:52.033Z,19.63
2023-03-10T11:27:39.009Z,19.63
2023-03-10T11:30:17.521Z,19.64
2023-03-10T11:33:13.540Z,19.64
2023-03-10T11:35:48.258Z,19.63
2023-03-10T11:38:48.492Z,19.63
2023-03-10T11:41:20.645Z,19.64
2023-03-10T11:44:16.893Z,19.65
2023-03-10T11:47:21.033Z,19.65
2023-03-10T11:49:55.311Z,19.66
2023-03-10T11:52:24.980Z,19.67
2023-03-10T11:55:02.309Z,19.68
2023-03-10T11:57:37.115Z,19.68
2023-03-10T12:00:15.361Z,19.69
2023-03-10T12:03:04.744Z,19.70
2023-03-10T12:05:52.424Z,19.70
2023-03-10T12:08:23.768Z,19.71
2023-03-10T12:10:52.569Z,19.72
2023-03-10T12:13:37.497Z,19.72
2023-03-10T12:16:06.931Z,19.73
2023-03-10T12:18:34.188Z,19.72
2023-03-10T12:21:13.192Z,19.73
2023-03-10T12:23:43.241Z,19.73
2023-03-10T12:26:11.123Z,19.74
2023-03-10T12:28:38.189Z,19.74
2023-03-10T12:31:05.339Z,19.75
2023-03-10T12:33:37.567Z,19.76
2023-03-10T12:36:26.060Z,19.76
2023-03-10T12:39:30.683Z,19.75
2023-03-10T12:42:06.089Z,19.75
2023-03-10T12:44:55.493Z,19.76
2023-03-10T12:47:56.020Z,19.77
2023-03-10T12:50:36.037Z,19.77
2023-03-10T12:53:11.937Z,19.76
2023-03-10T12:55:42.083Z,19.76
2023-03-10T12:58:17.624Z,19.77
2023-03-10T13:01:17.826Z,19.77
2023-03-10T13:03:48.970Z,19.75
2023-03-10T13:06:19.002Z,19.75
2023-03-10T13:08:52.636Z,19.76
2023-03-10T13:11:25.446Z,19.76
2023-03-10T13:14:02.358Z,19.77
2023-03-10T13:16:30.073Z,19.77
2023-03-10T13:18:57.240Z,19.78
2023-03-10T13:21:30.014Z,19.79
2023-03-10T13:23:59.299Z,19.79
2023-03-10T13:26:28.036Z,19.80
2023-03-10T13:28:58.434Z,19.80
2023-03-10T13:31:33.338Z,19.81
2023-03-10T13:34:18.222Z,19.81
2023-03-10T13:36:45.219Z,19.81
2023-03-10T13:39:21.795Z,19.82
2023-03-10T13:41:55.224Z,19.83
2023-03-10T13:44:28.041Z,19.85
2023-03-10T13:47:01.008Z,19.85
2023-03-10T13:49:32.721Z,19.85
2023-03-10T13:52:04.787Z,19.86
2023-03-10T13:54:35.261Z,19.86
2023-03-10T13:57:24.382Z,19.86
2023-03-10T13:59:53.817Z,19.87
2023-03-10T14:02:29.852Z,19.87
2023-03-10T14:04:58.919Z,19.87
2023-03-10T14:07:31.214Z,19.88
2023-03-10T14:10:12.609Z,19.89
2023-03-10T14:12:50.081Z,19.90
2023-03-10T14:15:22.989Z,19.90
2023-03-10T14:17:53.448Z,19.90
2023-03-10T14:20:58.706Z,19.91
2023-03-10T14:23:27.943Z,19.90
2023-03-10T14:25:58.220Z,19.90
2023-03-10T14:28:25.229Z,19.91
2023-03-10T14:30:53.463Z,19.91
2023-03-10T14:33:20.940Z,19.90
2023-03-10T14:35:47.997Z,19.90
2023-03-10T14:38:15.000Z,19.90
2023-03-10T14:40:46.064Z,19.90
2023-03-10T14:43:27.642Z,19.89
2023-03-10T14:45:57.962Z,19.89
2023-03-10T14:48:28.352Z,19.89
2023-03-10T14:50:56.948Z,19.89
2023-03-10T14:53:26.177Z,19.89
2023-03-10T14:55:56.235Z,19.89
2023-03-10T14:58:26.474Z,19.89
2023-03-10T15:00:53.992Z,19.89
2023-03-10T15:03:20.957Z,19.88
2023-03-10T15:05:49.355Z,19.88
2023-03-10T15:08:17.744Z,19.89
2023-03-10T15:10:48.842Z,19.88
2023-03-10T15:13:18.470Z,19.88
2023-03-10T15:15:47.288Z,19.88
2023-03-10T15:18:17.933Z,19.88
2023-03-10T15:20:45.787Z,19.87
2023-03-10T15:23:19.883Z,19.87
2023-03-10T15:25:47.178Z,19.85
2023-03-10T15:28:14.340Z,19.84
2023-03-10T15:30:41.754Z,19.83
2023-03-10T15:33:08.752Z,19.84
2023-03-10T15:35:35.801Z,19.83
2023-03-10T15:38:03.422Z,19.83
2023-03-10T15:40:32.707Z,19.82
2023-03-10T15:43:00.605Z,19.81
2023-03-10T15:45:30.907Z,19.80
2023-03-10T15:47:58.987Z,19.79
2023-03-10T15:50:26.337Z,19.79
2023-03-10T15:52:56.126Z,19.77
2023-03-10T15:55:24.133Z,19.77
2023-03-10T15:57:51.798Z,19.77
2023-03-10T16:00:22.665Z,19.76
2023-03-10T16:02:50.925Z,19.76
2023-03-10T16:05:19.264Z,19.76
2023-03-10T16:07:46.739Z,19.76
2023-03-10T16:10:16.875Z,19.76
2023-03-10T16:12:43.936Z,19.77
2023-03-10T16:15:12.518Z,19.77
2023-03-10T16:17:40.182Z,19.77
2023-03-10T16:20:12.334Z,19.77
2023-03-10T16:22:40.893Z,19.76
2023-03-10T16:25:13.596Z,19.77
2023-03-10T16:27:40.687Z,19.76
2023-03-10T16:30:09.308Z,19.76
2023-03-10T16:32:36.485Z,19.76
2023-03-10T16:35:03.793Z,19.76
2023-03-10T16:37:30.855Z,19.76
2023-03-10T16:39:58.179Z,19.76
2023-03-10T16:42:28.967Z,19.76
2023-03-10T16:44:57.064Z,19.76
2023-03-10T16:47:24.599Z,19.75
2023-03-10T16:49:51.620Z,19.76
2023-03-10T16:52:19.257Z,19.76
2023-03-10T16:54:47.567Z,19.76
2023-03-10T16:57:16.011Z,19.76
2023-03-10T16:59:44.814Z,19.76
2023-03-10T17:02:20.785Z,19.76
2023-03-10T17:04:47.906Z,19.77
2023-03-10T17:07:15.300Z,19.77
2023-03-10T17:09:42.312Z,19.76
2023-03-10T17:12:12.429Z,19.76
2023-03-10T17:14:39.465Z,19.76
2023-03-10T17:17:07.800Z,19.76
2023-03-10T17:19:35.100Z,19.76
2023-03-10T17:22:02.203Z,19.76
2023-03-10T17:24:29.552Z,19.75
2023-03-10T17:26:56.808Z,19.75
2023-03-10T17:29:23.881Z,19.74
2023-03-10T17:31:51.999Z,19.75
2023-03-10T17:34:19.815Z,19.75
2023-03-10T17:36:49.489Z,19.75
2023-03-10T17:39:22.451Z,19.75
2023-03-10T17:41:49.850Z,19.74
2023-03-10T17:44:18.739Z,19.74
2023-03-10T17:46:45.949Z,19.74
2023-03-10T17:49:15.176Z,19.74
2023-03-10T17:51:44.896Z,19.74
2023-03-10T17:54:20.425Z,19.74
2023-03-10T17:56:49.001Z,19.73
2023-03-10T17:59:16.442Z,19.71
2023-03-10T18:01:45.279Z,19.70
2023-03-10T18:04:13.213Z,19.69
2023-03-10T18:06:40.755Z,19.68
2023-03-10T18:09:13.266Z,19.68
2023-03-10T18:11:40.381Z,19.67
2023-03-10T18:14:07.407Z,19.67
2023-03-10T18:16:37.944Z,19.67
2023-03-10T18:19:05.459Z,19.67
2023-03-10T18:21:32.792Z,19.68
2023-03-10T18:24:00.789Z,19.68
2023-03-10T18:26:30.699Z,19.66
2023-03-10T18:28:59.426Z,19.65
2023-03-10T18:31:30.370Z,19.63
2023-03-10T18:33:58.414Z,19.61
2023-03-10T18:36:25.979Z,19.61
2023-03-10T18:38:55.246Z,19.61
2023-03-10T18:41:25.255Z,19.62
2023-03-10T18:43:53.164Z,19.61
2023-03-10T18:46:20.841Z,19.63
2023-03-10T18:48:48.189Z,19.64
2023-03-10T18:51:15.195Z,19.65
2023-03-10T18:53:42.349Z,19.67
2023-03-10T18:56:10.589Z,19.67
2023-03-10T18:58:37.760Z,19.67
2023-03-10T19:01:10.516Z,19.69
2023-03-10T19:03:37.571Z,19.69
2023-03-10T19:06:05.142Z,19.69
2023-03-10T19:08:35.274Z,19.70
2023-03-10T19:11:02.472Z,19.70
2023-03-10T19:13:32.404Z,19.71
2023-03-10T19:15:59.489Z,19.72
2023-03-10T19:18:26.575Z,19.72
2023-03-10T19:21:02.836Z,19.72
2023-03-10T19:23:31.063Z,19.73
2023-03-10T19:26:02.005Z,19.73
2023-03-10T19:28:33.599Z,19.73
2023-03-10T19:31:03.209Z,19.71
2023-03-10T19:33:32.380Z,19.70
2023-03-10T19:36:03.537Z,19.70
2023-03-10T19:38:32.747Z,19.71
2023-03-10T19:41:06.416Z,19.70
2023-03-10T19:43:38.358Z,19.71
2023-03-10T19:46:12.930Z,19.71
2023-03-10T19:48:45.916Z,19.71
2023-03-10T19:51:23.091Z,19.72
2023-03-10T19:53:56.522Z,19.72
2023-03-10T19:56:30.553Z,19.72
2023-03-10T19:59:23.705Z,19.73
2023-03-10T20:01:51.910Z,19.72
2023-03-10T20:04:19.012Z,19.73
2023-03-10T20:06:46.569Z,19.72
2023-03-10T20:09:13.590Z,19.73
2023-03-10T20:11:41.914Z,19.73
2023-03-10T20:14:09.381Z,19.74
2023-03-10T20:16:36.641Z,19.74
2023-03-10T20:19:05.370Z,19.72
2023-03-10T20:21:32.460Z,19.70
2023-03-10T20:24:01.150Z,19.69
2023-03-10T20:26:28.512Z,19.67
2023-03-10T20:28:55.514Z,19.66
2023-03-10T20:31:24.625Z,19.66
2023-03-10T20:33:52.515Z,19.66
2023-03-10T20:36:19.964Z,19.67
2023-03-10T20:38:47.549Z,19.67
2023-03-10T20:41:17.413Z,19.66
2023-03-10T20:43:45.308Z,19.64
2023-03-10T20:46:13.495Z,19.63
2023-03-10T20:48:41.926Z,19.62
2023-03-10T20:51:09.146Z,19.62
2023-03-10T20:53:37.515Z,19.61
2023-03-10T20:56:14.983Z,19.62
2023-03-10T20:58:42.372Z,19.63
2023-03-10T21:01:18.940Z,19.65
2023-03-10T21:03:46.203Z,19.66
2023-03-10T21:06:13.258Z,19.67
2023-03-10T21:08:40.445Z,19.68
2023-03-10T21:11:08.893Z,19.69
2023-03-10T21:13:36.515Z,19.70
2023-03-10T21:16:06.054Z,19.72
2023-03-10T21:18:33.688Z,19.73
2023-03-10T21:21:07.289Z,19.73
2023-03-10T21:23:41.508Z,19.74
2023-03-10T21:26:21.077Z,19.74
2023-03-10T21:28:48.136Z,19.75
2023-03-10T21:31:15.617Z,19.76
2023-03-10T21:33:42.990Z,19.76
2023-03-10T21:36:16.174Z,19.76
2023-03-10T21:38:43.535Z,19.75
2023-03-10T21:41:14.473Z,19.74
2023-03-10T21:43:41.520Z,19.73
2023-03-10T21:46:08.733Z,19.71
2023-03-10T21:48:36.134Z,19.69
2023-03-10T21:51:04.209Z,19.65
2023-03-10T21:53:31.792Z,19.62
2023-03-10T21:56:00.902Z,19.60
2023-03-10T21:58:29.067Z,19.57
2023-03-10T22:00:56.552Z,19.55
2023-03-10T22:03:23.639Z,19.53
2023-03-10T22:05:51.352Z,19.50
2023-03-10T22:08:18.382Z,19.49
2023-03-10T22:10:46.210Z,19.47
2023-03-10T22:13:13.259Z,19.44
2023-03-10T22:15:40.870Z,19.42
2023-03-10T22:18:08.680Z,19.40
2023-03-10T22:20:36.134Z,19.38
2023-03-10T22:23:05.165Z,19.36
2023-03-10T22:25:32.693Z,19.35
2023-03-10T22:28:03.053Z,19.37
2023-03-10T22:30:31.936Z,19.37
2023-03-10T22:33:00.512Z,19.39
2023-03-10T22:35:28.240Z,19.41
2023-03-10T22:37:56.078Z,19.43
2023-03-10T22:40:25.925Z,19.46
2023-03-10T22:42:56.030Z,19.47
2023-03-10T22:45:26.858Z,19.48
2023-03-10T22:47:57.370Z,19.51
2023-03-10T22:50:28.710Z,19.53
2023-03-10T22:52:56.161Z,19.56
2023-03-10T22:55:27.146Z,19.58
2023-03-10T22:57:57.369Z,19.60
2023-03-10T23:00:24.626Z,19.61
2023-03-10T23:02:52.572Z,19.62
2023-03-10T23:05:21.029Z,19.61
2023-03-10T23:07:49.151Z,19.62
2023-03-10T23:10:25.821Z,19.61
2023-03-10T23:12:53.892Z,19.62
2023-03-10T23:15:25.919Z,19.61
2023-03-10T23:17:55.618Z,19.61
2023-03-10T23:20:27.900Z,19.60
2023-03-10T23:22:56.978Z,19.59
2023-03-10T23:25:28.531Z,19.60
2023-03-10T23:27:55.726Z,19.59
2023-03-10T23:30:23.709Z,19.61
2023-03-10T23:32:51.891Z,19.62
2023-03-10T23:35:22.816Z,19.63
2023-03-10T23:37:51.407Z,19.64
2023-03-10T23:40:21.375Z,19.65
2023-03-10T23:42:48.646Z,19.66
2023-03-10T23:45:20.726Z,19.67
2023-03-10T23:47:48.820Z,19.68
2023-03-10T23:50:31.829Z,19.69
2023-03-10T23:52:59.123Z,19.70
2023-03-10T23:55:30.230Z,19.70
2023-03-10T23:57:57.301Z,19.71
